createdAt,value
2022-12-25T00:00:55.687Z,98516.09
2022-12-25T00:01:58.620Z,98526.81
2022-12-25T00:03:01.694Z,98527.31
2022-12-25T00:05:12.314Z,98528.09
2022-12-25T00:06:16.376Z,98533.84
2022-12-25T00:07:19.374Z,98530.69
2022-12-25T00:08:22.260Z,98531.75
2022-12-25T00:09:25.739Z,98530.19
2022-12-25T00:10:28.583Z,98528.63
2022-12-25T00:11:31.539Z,98535.13
2022-12-25T00:12:34.577Z,98528.63
2022-12-25T00:13:38.316Z,98532.03
2022-12-25T00:14:42.173Z,98532.53
2022-12-25T00:15:45.111Z,98538.78
2022-12-25T00:16:48.172Z,98543.22
2022-12-25T00:17:51.415Z,98536.97
2022-12-25T00:18:56.761Z,98538.00
2022-12-25T00:19:59.678Z,98544.25
2022-12-25T00:21:06.615Z,98549.97
2022-12-25T00:22:09.709Z,98548.94
2022-12-25T00:23:12.776Z,98554.94
2022-12-25T00:24:16.121Z,98559.87
2022-12-25T00:25:23.034Z,98561.97
2022-12-25T00:26:28.030Z,98559.09
2022-12-25T00:27:35.274Z,98563.75
2022-12-25T00:28:39.393Z,98566.09
2022-12-25T00:29:43.027Z,98564.25
2022-12-25T00:30:47.917Z,98568.91
2022-12-25T00:31:51.268Z,98565.78
2022-12-25T00:32:57.852Z,98576.44
2022-12-25T00:34:00.939Z,98575.91
2022-12-25T00:35:05.668Z,98574.88
2022-12-25T00:36:09.782Z,98577.47
2022-12-25T00:37:13.028Z,98573.56
2022-12-25T00:38:16.152Z,98575.66
2022-12-25T00:39:21.996Z,98577.44
2022-12-25T00:40:25.465Z,98565.44
2022-12-25T00:41:47.111Z,98567.28
2022-12-25T00:42:50.759Z,98570.16
2022-12-25T00:43:54.034Z,98573.22
2022-12-25T00:44:57.307Z,98570.63
2022-12-25T00:46:05.442Z,98575.28
2022-12-25T00:47:08.643Z,98573.72
2022-12-25T00:48:11.751Z,98581.78
2022-12-25T00:49:14.824Z,98587.47
2022-12-25T00:50:18.553Z,98594.78
2022-12-25T00:51:21.705Z,98601.38
2022-12-25T00:52:28.066Z,98603.75
2022-12-25T00:53:31.905Z,98605.59
2022-12-25T00:54:35.192Z,98604.25
2022-12-25T00:55:38.226Z,98603.97
2022-12-25T00:56:41.710Z,98597.69
2022-12-25T00:57:45.066Z,98599.75
2022-12-25T00:58:48.625Z,98607.03
2022-12-25T00:59:51.743Z,98590.91
2022-12-25T01:00:55.085Z,98598.69
2022-12-25T01:02:18.955Z,98593.72
2022-12-25T01:03:23.022Z,98589.81
2022-12-25T01:04:26.346Z,98592.91
2022-12-25T01:05:29.512Z,98594.47
2022-12-25T01:06:33.163Z,98602.28
2022-12-25T01:07:36.580Z,98599.66
2022-12-25T01:09:01.744Z,98597.31
2022-12-25T01:10:25.514Z,98605.87
2022-12-25T01:11:29.457Z,98612.63
2022-12-25T01:12:34.931Z,98602.19
2022-12-25T01:13:38.196Z,98609.22
2022-12-25T01:14:41.484Z,98612.88
2022-12-25T01:15:44.689Z,98614.69
2022-12-25T01:16:47.789Z,98610.50
2022-12-25T01:17:54.107Z,98612.50
2022-12-25T01:18:57.149Z,98610.00
2022-12-25T01:20:00.371Z,98614.97
2022-12-25T01:21:08.468Z,98606.37
2022-12-25T01:22:11.706Z,98615.50
2022-12-25T01:23:15.623Z,98612.59
2022-12-25T01:24:22.155Z,98612.88
2022-12-25T01:25:28.944Z,98612.09
2022-12-25T01:26:32.344Z,98611.28
2022-12-25T01:27:35.965Z,98616.75
2022-12-25T01:28:39.848Z,98610.50
2022-12-25T01:29:43.103Z,98612.09
2022-12-25T01:30:49.957Z,98616.75
2022-12-25T01:31:57.255Z,98608.69
2022-12-25T01:33:00.429Z,98602.69
2022-12-25T01:34:03.673Z,98616.13
2022-12-25T01:35:07.268Z,98616.63
2022-12-25T01:36:36.667Z,98619.22
2022-12-25T01:37:39.961Z,98624.94
2022-12-25T01:38:44.115Z,98630.94
2022-12-25T01:39:47.748Z,98625.75
2022-12-25T01:40:51.113Z,98633.00
2022-12-25T01:41:54.340Z,98631.44
2022-12-25T01:42:57.605Z,98627.25
2022-12-25T01:44:06.776Z,98627.03
2022-12-25T01:45:36.464Z,98620.53
2022-12-25T01:46:39.933Z,98624.94
2022-12-25T01:47:43.243Z,98629.63
2022-12-25T01:48:46.647Z,98624.41
2022-12-25T01:49:51.591Z,98622.81
2022-12-25T01:51:02.497Z,98612.19
2022-12-25T01:52:20.277Z,98613.25
2022-12-25T01:53:27.224Z,98622.81
2022-12-25T01:54:44.162Z,98625.44
2022-12-25T01:55:51.160Z,98621.81
2022-12-25T01:56:58.470Z,98624.66
2022-12-25T01:58:02.143Z,98618.94
2022-12-25T01:59:07.386Z,98616.34
2022-12-25T02:00:13.896Z,98622.81
2022-12-25T02:01:17.374Z,98616.03
2022-12-25T02:02:21.511Z,98621.22
2022-12-25T02:03:25.731Z,98623.81
2022-12-25T02:04:55.778Z,98612.66
2022-12-25T02:06:01.242Z,98613.94
2022-12-25T02:07:12.194Z,98613.94
2022-12-25T02:08:17.171Z,98615.50
2022-12-25T02:09:20.598Z,98620.66
2022-12-25T02:10:24.205Z,98617.03
2022-12-25T02:11:46.073Z,98620.16
2022-12-25T02:12:49.637Z,98617.31
2022-12-25T02:13:52.847Z,98616.53
2022-12-25T02:15:05.293Z,98615.25
2022-12-25T02:16:16.192Z,98623.81
2022-12-25T02:17:25.529Z,98622.50
2022-12-25T02:18:44.258Z,98627.69
2022-12-25T02:20:15.308Z,98620.16
2022-12-25T02:21:30.504Z,98618.62
2022-12-25T02:23:10.789Z,98613.91
2022-12-25T02:24:27.287Z,98613.66
2022-12-25T02:25:58.066Z,98612.88
2022-12-25T02:27:24.785Z,98610.75
2022-12-25T02:28:36.423Z,98620.38
2022-12-25T02:29:48.670Z,98621.41
2022-12-25T02:31:29.974Z,98622.97
2022-12-25T02:32:51.168Z,98617.47
2022-12-25T02:34:42.234Z,98624.00
2022-12-25T02:35:51.671Z,98623.50
2022-12-25T02:37:06.641Z,98633.12
2022-12-25T02:38:18.904Z,98633.12
2022-12-25T02:39:48.665Z,98633.91
2022-12-25T02:41:00.675Z,98636.25
2022-12-25T02:42:08.631Z,98628.75
2022-12-25T02:44:00.233Z,98631.09
2022-12-25T02:45:22.833Z,98636.03
2022-12-25T02:46:46.393Z,98644.37
2022-12-25T02:48:09.707Z,98647.28
2022-12-25T02:49:43.192Z,98641.84
2022-12-25T02:51:06.071Z,98641.53
2022-12-25T02:52:36.052Z,98630.13
2022-12-25T02:54:00.401Z,98637.50
2022-12-25T02:55:46.624Z,98641.94
2022-12-25T02:57:11.033Z,98638.97
2022-12-25T02:58:37.268Z,98642.06
2022-12-25T03:00:01.904Z,98650.41
2022-12-25T03:01:38.804Z,98657.44
2022-12-25T03:03:02.701Z,98655.06
2022-12-25T03:04:30.384Z,98655.34
2022-12-25T03:05:56.399Z,98660.81
2022-12-25T03:07:15.066Z,98656.34
2022-12-25T03:08:27.561Z,98657.38
2022-12-25T03:09:57.456Z,98661.31
2022-12-25T03:11:23.191Z,98661.53
2022-12-25T03:12:37.714Z,98666.25
2022-12-25T03:13:44.243Z,98668.84
2022-12-25T03:15:06.421Z,98677.16
2022-12-25T03:16:28.191Z,98675.09
2022-12-25T03:17:35.984Z,98672.72
2022-12-25T03:18:39.461Z,98673.22
2022-12-25T03:20:02.266Z,98663.59
2022-12-25T03:21:27.787Z,98668.03
2022-12-25T03:23:04.841Z,98667.00
2022-12-25T03:24:26.327Z,98664.09
2022-12-25T03:25:59.179Z,98665.41
2022-12-25T03:27:02.459Z,98671.38
2022-12-25T03:28:06.516Z,98664.06
2022-12-25T03:29:32.108Z,98663.78
2022-12-25T03:31:11.799Z,98670.00
2022-12-25T03:32:19.509Z,98667.66
2022-12-25T03:33:44.460Z,98677.22
2022-12-25T03:35:34.741Z,98680.59
2022-12-25T03:37:42.536Z,98684.53
2022-12-25T03:39:07.280Z,98678.72
2022-12-25T03:40:56.923Z,98677.38
2022-12-25T03:42:21.328Z,98679.72
2022-12-25T03:43:55.278Z,98697.37
2022-12-25T03:45:27.256Z,98691.22
2022-12-25T03:46:36.189Z,98690.41
2022-12-25T03:48:03.861Z,98697.19
2022-12-25T03:49:48.967Z,98701.09
2022-12-25T03:51:20.926Z,98695.13
2022-12-25T03:52:42.618Z,98693.81
2022-12-25T03:54:09.207Z,98705.75
2022-12-25T03:55:34.483Z,98694.88
2022-12-25T03:56:57.254Z,98693.81
2022-12-25T03:58:19.121Z,98699.78
2022-12-25T03:59:42.382Z,98696.69
2022-12-25T04:01:04.208Z,98703.38
2022-12-25T04:02:26.208Z,98697.47
2022-12-25T04:03:47.979Z,98705.37
2022-12-25T04:05:09.818Z,98699.69
2022-12-25T04:06:31.587Z,98698.84
2022-12-25T04:07:53.913Z,98702.94
2022-12-25T04:09:15.645Z,98701.69
2022-12-25T04:10:37.540Z,98703.22
2022-12-25T04:12:03.052Z,98693.31
2022-12-25T04:13:25.532Z,98690.72
2022-12-25T04:14:47.377Z,98690.22
2022-12-25T04:16:11.084Z,98695.94
2022-12-25T04:17:32.916Z,98689.44
2022-12-25T04:18:54.792Z,98689.94
2022-12-25T04:20:16.455Z,98695.91
2022-12-25T04:21:38.428Z,98695.13
2022-12-25T04:23:00.347Z,98694.59
2022-12-25T04:24:22.297Z,98699.00
2022-12-25T04:25:44.110Z,98698.69
2022-12-25T04:27:06.039Z,98706.72
2022-12-25T04:28:27.874Z,98696.13
2022-12-25T04:29:49.725Z,98702.59
2022-12-25T04:31:11.608Z,98712.97
2022-12-25T04:32:33.350Z,98714.25
2022-12-25T04:33:55.073Z,98712.16
2022-12-25T04:35:16.933Z,98713.97
2022-12-25T04:36:26.967Z,98709.75
2022-12-25T04:37:30.746Z,98709.19
2022-12-25T04:38:38.074Z,98703.72
2022-12-25T04:39:41.401Z,98699.31
2022-12-25T04:40:44.712Z,98694.66
2022-12-25T04:41:47.919Z,98693.09
2022-12-25T04:42:52.044Z,98690.50
2022-12-25T04:43:55.226Z,98693.88
2022-12-25T04:44:58.539Z,98693.62
2022-12-25T04:46:03.089Z,98686.88
2022-12-25T04:47:11.761Z,98689.47
2022-12-25T04:48:15.609Z,98687.66
2022-12-25T04:49:18.754Z,98684.53
2022-12-25T04:50:22.671Z,98696.72
2022-12-25T04:51:26.465Z,98695.63
2022-12-25T04:52:30.031Z,98692.00
2022-12-25T04:53:33.169Z,98690.94
2022-12-25T04:54:38.669Z,98701.31
2022-12-25T04:56:49.873Z,98695.91
2022-12-25T04:57:53.283Z,98703.69
2022-12-25T04:58:56.521Z,98701.59
2022-12-25T04:59:59.674Z,98694.78
2022-12-25T05:01:03.857Z,98709.59
2022-12-25T05:02:07.239Z,98709.12
2022-12-25T05:03:14.200Z,98709.91
2022-12-25T05:04:17.336Z,98707.78
2022-12-25T05:05:20.595Z,98709.31
2022-12-25T05:06:23.710Z,98701.22
2022-12-25T05:07:27.280Z,98701.22
2022-12-25T05:08:32.745Z,98701.22
2022-12-25T05:09:36.040Z,98700.59
2022-12-25T05:10:40.916Z,98702.16
2022-12-25T05:11:44.077Z,98713.94
2022-12-25T05:12:47.295Z,98708.75
2022-12-25T05:13:50.501Z,98714.91
2022-12-25T05:14:53.738Z,98712.09
2022-12-25T05:15:57.050Z,98715.16
2022-12-25T05:17:00.266Z,98722.41
2022-12-25T05:18:03.545Z,98715.34
2022-12-25T05:19:06.766Z,98714.97
2022-12-25T05:20:10.085Z,98712.44
2022-12-25T05:21:13.351Z,98719.16
2022-12-25T05:22:16.523Z,98716.78
2022-12-25T05:23:19.817Z,98710.25
2022-12-25T05:24:26.667Z,98710.34
2022-12-25T05:25:29.889Z,98706.69
2022-12-25T05:26:33.119Z,98710.88
2022-12-25T05:27:36.394Z,98716.84
2022-12-25T05:28:39.650Z,98717.91
2022-12-25T05:29:42.913Z,98716.31
2022-12-25T05:30:46.087Z,98713.72
2022-12-25T05:31:49.309Z,98709.00
2022-12-25T05:32:52.532Z,98710.34
2022-12-25T05:33:55.729Z,98715.53
2022-12-25T05:35:00.864Z,98707.97
2022-12-25T05:36:06.020Z,98715.75
2022-12-25T05:37:09.107Z,98714.75
2022-12-25T05:38:12.389Z,98719.38
2022-12-25T05:39:15.728Z,98719.38
2022-12-25T05:40:18.873Z,98723.53
2022-12-25T05:41:22.127Z,98724.66
2022-12-25T05:42:25.346Z,98720.50
2022-12-25T05:43:29.765Z,98720.50
2022-12-25T05:44:33.063Z,98715.53
2022-12-25T05:45:37.001Z,98719.16
2022-12-25T05:46:40.551Z,98716.50
2022-12-25T05:47:43.727Z,98720.91
2022-12-25T05:48:46.958Z,98733.09
2022-12-25T05:49:49.983Z,98725.53
2022-12-25T05:50:53.200Z,98735.22
2022-12-25T05:51:56.319Z,98730.72
2022-12-25T05:53:05.980Z,98731.78
2022-12-25T05:54:11.516Z,98733.59
2022-12-25T05:55:14.670Z,98731.00
2022-12-25T05:56:18.017Z,98732.00
2022-12-25T05:57:21.362Z,98735.84
2022-12-25T05:58:24.549Z,98738.44
2022-12-25T05:59:31.189Z,98742.38
2022-12-25T06:00:35.260Z,98742.84
2022-12-25T06:01:38.541Z,98737.66
2022-12-25T06:02:41.926Z,98735.31
2022-12-25T06:03:49.088Z,98735.00
2022-12-25T06:04:52.318Z,98731.88
2022-12-25T06:05:55.432Z,98730.13
2022-12-25T06:06:58.557Z,98731.13
2022-12-25T06:08:01.925Z,98723.59
2022-12-25T06:09:05.124Z,98722.28
2022-12-25T06:10:09.185Z,98724.09
2022-12-25T06:11:14.593Z,98716.53
2022-12-25T06:12:17.791Z,98727.94
2022-12-25T06:13:21.003Z,98721.63
2022-12-25T06:14:24.027Z,98719.84
2022-12-25T06:15:27.148Z,98716.44
2022-12-25T06:16:37.365Z,98720.91
2022-12-25T06:17:41.446Z,98706.09
2022-12-25T06:18:48.694Z,98715.75
2022-12-25T06:19:52.124Z,98712.22
2022-12-25T06:20:59.080Z,98719.87
2022-12-25T06:22:02.470Z,98719.16
2022-12-25T06:23:05.624Z,98712.69
2022-12-25T06:24:08.938Z,98722.09
2022-12-25T06:25:12.232Z,98717.75
2022-12-25T06:26:18.385Z,98716.00
2022-12-25T06:27:21.747Z,98720.84
2022-12-25T06:28:25.052Z,98717.41
2022-12-25T06:29:28.289Z,98721.75
2022-12-25T06:30:31.917Z,98715.97
2022-12-25T06:31:35.314Z,98722.41
2022-12-25T06:32:38.548Z,98720.00
2022-12-25T06:33:42.356Z,98716.84
2022-12-25T06:34:45.551Z,98731.09
2022-12-25T06:35:48.637Z,98731.59
2022-12-25T06:36:51.836Z,98733.63
2022-12-25T06:37:55.190Z,98737.34
2022-12-25T06:39:05.136Z,98727.19
2022-12-25T06:40:09.032Z,98726.41
2022-12-25T06:41:17.507Z,98731.59
2022-12-25T06:42:20.505Z,98736.28
2022-12-25T06:43:23.715Z,98730.06
2022-12-25T06:44:26.866Z,98728.72
2022-12-25T06:45:33.114Z,98735.75
2022-12-25T06:46:36.549Z,98739.38
2022-12-25T06:47:43.066Z,98738.34
2022-12-25T06:48:49.823Z,98731.09
2022-12-25T06:49:53.265Z,98741.78
2022-12-25T06:51:01.269Z,98738.19
2022-12-25T06:52:04.435Z,98741.78
2022-12-25T06:53:07.831Z,98743.37
2022-12-25T06:54:14.065Z,98746.50
2022-12-25T06:55:17.155Z,98743.13
2022-12-25T06:56:24.421Z,98743.37
2022-12-25T06:57:27.796Z,98748.56
2022-12-25T06:58:31.027Z,98757.91
2022-12-25T06:59:34.230Z,98757.19
2022-12-25T07:00:37.512Z,98758.47
2022-12-25T07:01:55.539Z,98761.84
2022-12-25T07:02:59.038Z,98764.69
2022-12-25T07:04:05.159Z,98764.94
2022-12-25T07:05:12.116Z,98765.72
2022-12-25T07:06:15.599Z,98768.53
2022-12-25T07:07:18.714Z,98775.31
2022-12-25T07:08:21.915Z,98782.81
2022-12-25T07:09:25.131Z,98783.59
2022-12-25T07:10:28.281Z,98788.53
2022-12-25T07:11:31.516Z,98784.94
2022-12-25T07:12:34.810Z,98792.47
2022-12-25T07:13:38.423Z,98782.84
2022-12-25T07:14:41.733Z,98786.22
2022-12-25T07:15:44.742Z,98794.34
2022-12-25T07:16:48.248Z,98796.47
2022-12-25T07:17:51.476Z,98804.25
2022-12-25T07:18:54.633Z,98803.22
2022-12-25T07:19:58.353Z,98801.66
2022-12-25T07:21:08.521Z,98806.38
2022-12-25T07:22:11.902Z,98807.16
2022-12-25T07:23:15.150Z,98812.56
2022-12-25T07:24:20.696Z,98801.97
2022-12-25T07:25:23.805Z,98806.38
2022-12-25T07:26:27.375Z,98807.94
2022-12-25T07:27:31.072Z,98805.16
2022-12-25T07:28:34.884Z,98807.72
2022-12-25T07:29:38.190Z,98813.38
2022-12-25T07:30:41.295Z,98808.97
2022-12-25T07:31:44.613Z,98820.13
2022-12-25T07:32:50.290Z,98818.81
2022-12-25T07:33:54.867Z,98810.78
2022-12-25T07:34:58.113Z,98818.31
2022-12-25T07:36:01.733Z,98828.16
2022-12-25T07:37:04.909Z,98825.06
2022-12-25T07:38:08.503Z,98824.84
2022-12-25T07:39:12.388Z,98824.12
2022-12-25T07:40:15.949Z,98821.38
2022-12-25T07:41:19.173Z,98826.00
2022-12-25T07:42:25.368Z,98820.25
2022-12-25T07:43:28.791Z,98822.06
2022-12-25T07:44:31.871Z,98818.16
2022-12-25T07:45:35.133Z,98825.94
2022-12-25T07:46:38.321Z,98828.78
2022-12-25T07:47:41.565Z,98828.00
2022-12-25T07:48:44.671Z,98831.47
2022-12-25T07:49:47.921Z,98839.56
2022-12-25T07:51:04.009Z,98836.47
2022-12-25T07:52:07.123Z,98835.22
2022-12-25T07:53:10.317Z,98838.03
2022-12-25T07:54:13.504Z,98846.38
2022-12-25T07:55:16.641Z,98846.47
2022-12-25T07:56:21.044Z,98841.31
2022-12-25T07:57:24.096Z,98846.00
2022-12-25T07:58:28.311Z,98854.38
2022-12-25T07:59:35.076Z,98848.09
2022-12-25T08:00:38.330Z,98849.09
2022-12-25T08:01:41.566Z,98846.50
2022-12-25T08:02:45.104Z,98854.59
2022-12-25T08:03:53.278Z,98858.31
2022-12-25T08:04:56.515Z,98859.94
2022-12-25T08:06:02.062Z,98852.44
2022-12-25T08:07:05.744Z,98861.06
2022-12-25T08:08:09.055Z,98859.25
2022-12-25T08:09:13.188Z,98856.19
2022-12-25T08:10:16.587Z,98857.22
2022-12-25T08:11:20.349Z,98857.22
2022-12-25T08:12:23.511Z,98864.81
2022-12-25T08:13:26.913Z,98864.41
2022-12-25T08:14:30.433Z,98865.00
2022-12-25T08:15:33.691Z,98867.19
2022-12-25T08:16:40.260Z,98864.44
2022-12-25T08:17:43.615Z,98864.66
2022-12-25T08:18:46.866Z,98862.53
2022-12-25T08:19:49.914Z,98859.56
2022-12-25T08:20:53.028Z,98868.50
2022-12-25T08:21:56.474Z,98859.47
2022-12-25T08:22:59.802Z,98864.94
2022-12-25T08:24:03.543Z,98857.75
2022-12-25T08:25:06.950Z,98863.72
2022-12-25T08:26:13.918Z,98864.00
2022-12-25T08:27:17.263Z,98860.63
2022-12-25T08:28:20.413Z,98861.47
2022-12-25T08:29:23.882Z,98861.00
2022-12-25T08:30:29.315Z,98860.78
2022-12-25T08:31:39.439Z,98869.69
2022-12-25T08:32:45.735Z,98866.88
2022-12-25T08:33:50.548Z,98862.25
2022-12-25T08:34:53.630Z,98868.00
2022-12-25T08:36:02.470Z,98869.91
2022-12-25T08:37:05.689Z,98862.09
2022-12-25T08:38:09.016Z,98871.28
2022-12-25T08:39:12.173Z,98868.47
2022-12-25T08:40:15.371Z,98868.25
2022-12-25T08:41:18.674Z,98871.66
2022-12-25T08:42:21.752Z,98868.53
2022-12-25T08:43:24.847Z,98867.25
2022-12-25T08:44:31.200Z,98868.38
2022-12-25T08:45:35.345Z,98867.03
2022-12-25T08:46:40.465Z,98866.03
2022-12-25T08:47:43.911Z,98867.81
2022-12-25T08:48:48.213Z,98870.94
2022-12-25T08:49:55.111Z,98878.22
2022-12-25T08:50:59.048Z,98873.16
2022-12-25T08:52:02.251Z,98873.34
2022-12-25T08:53:05.828Z,98879.63
2022-12-25T08:54:09.560Z,98871.97
2022-12-25T08:55:12.909Z,98878.44
2022-12-25T08:56:16.685Z,98880.84
2022-12-25T08:57:20.151Z,98877.94
2022-12-25T08:58:27.111Z,98879.31
2022-12-25T08:59:30.725Z,98882.38
2022-12-25T09:00:33.855Z,98885.09
2022-12-25T09:01:37.039Z,98885.41
2022-12-25T09:02:40.398Z,98888.84
2022-12-25T09:03:44.053Z,98889.03
2022-12-25T09:04:47.711Z,98885.97
2022-12-25T09:05:51.646Z,98886.50
2022-12-25T09:06:54.928Z,98891.78
2022-12-25T09:07:58.357Z,98881.69
2022-12-25T09:09:01.778Z,98887.47
2022-12-25T09:10:05.304Z,98889.63
2022-12-25T09:11:12.202Z,98890.63
2022-12-25T09:12:15.755Z,98889.38
2022-12-25T09:13:18.859Z,98890.75
2022-12-25T09:14:22.213Z,98889.19
2022-12-25T09:15:25.316Z,98882.47
2022-12-25T09:16:28.661Z,98885.34
2022-12-25T09:17:33.111Z,98890.31
2022-12-25T09:18:36.456Z,98889.75
2022-12-25T09:19:39.595Z,98888.66
2022-12-25T09:20:42.787Z,98898.31
2022-12-25T09:21:46.326Z,98895.03
2022-12-25T09:22:50.107Z,98901.25
2022-12-25T09:23:53.145Z,98896.63
2022-12-25T09:24:56.361Z,98887.09
2022-12-25T09:26:04.287Z,98897.63
2022-12-25T09:27:08.145Z,98902.91
2022-12-25T09:28:11.411Z,98897.00
2022-12-25T09:29:16.737Z,98903.72
2022-12-25T09:30:20.284Z,98901.72
2022-12-25T09:31:24.472Z,98900.81
2022-12-25T09:32:27.953Z,98900.28
2022-12-25T09:33:31.337Z,98899.78
2022-12-25T09:34:35.051Z,98901.22
2022-12-25T09:35:38.453Z,98892.22
2022-12-25T09:36:41.683Z,98896.03
2022-12-25T09:37:45.304Z,98893.50
2022-12-25T09:38:48.823Z,98890.44
2022-12-25T09:39:52.653Z,98899.53
2022-12-25T09:41:26.712Z,98902.03
2022-12-25T09:42:32.993Z,98898.06
2022-12-25T09:43:45.113Z,98896.44
2022-12-25T09:44:59.709Z,98899.84
2022-12-25T09:46:05.481Z,98899.50
2022-12-25T09:47:11.133Z,98896.44
2022-12-25T09:48:16.807Z,98898.88
2022-12-25T09:49:51.787Z,98905.31
2022-12-25T09:51:10.816Z,98899.03
2022-12-25T09:52:55.493Z,98900.91
2022-12-25T09:54:04.975Z,98902.94
2022-12-25T09:55:20.644Z,98894.91
2022-12-25T09:56:28.894Z,98907.31
2022-12-25T09:57:33.840Z,98897.06
2022-12-25T09:58:37.395Z,98900.94
2022-12-25T09:59:45.028Z,98900.56
2022-12-25T10:00:56.117Z,98905.63
2022-12-25T10:02:17.889Z,98908.41
2022-12-25T10:03:49.394Z,98908.25
2022-12-25T10:05:19.495Z,98909.56
2022-12-25T10:06:28.098Z,98899.47
2022-12-25T10:07:55.717Z,98904.72
2022-12-25T10:09:37.409Z,98894.25
2022-12-25T10:11:31.521Z,98896.00
2022-12-25T10:12:46.986Z,98888.28
2022-12-25T10:14:11.303Z,98898.72
2022-12-25T10:15:37.821Z,98890.47
2022-12-25T10:17:22.124Z,98881.78
2022-12-25T10:19:00.291Z,98875.41
2022-12-25T10:20:27.064Z,98884.31
2022-12-25T10:21:31.788Z,98885.94
2022-12-25T10:22:53.491Z,98879.66
2022-12-25T10:24:27.240Z,98880.63
2022-12-25T10:25:32.241Z,98878.44
2022-12-25T10:26:35.848Z,98876.50
2022-12-25T10:27:46.184Z,98872.00
2022-12-25T10:29:15.619Z,98874.41
2022-12-25T10:30:24.592Z,98879.59
2022-12-25T10:31:34.000Z,98869.44
2022-12-25T10:32:37.101Z,98874.00
2022-12-25T10:33:40.248Z,98875.03
2022-12-25T10:34:43.945Z,98876.84
2022-12-25T10:35:48.445Z,98876.84
2022-12-25T10:36:51.720Z,98876.84
2022-12-25T10:38:13.097Z,98873.87
2022-12-25T10:39:22.374Z,98873.13
2022-12-25T10:40:33.467Z,98873.78
2022-12-25T10:41:55.335Z,98873.19
2022-12-25T10:43:12.567Z,98868.28
2022-12-25T10:44:21.348Z,98866.44
2022-12-25T10:45:24.685Z,98863.13
2022-12-25T10:46:30.384Z,98867.09
2022-12-25T10:47:42.930Z,98865.69
2022-12-25T10:48:56.400Z,98878.13
2022-12-25T10:50:08.176Z,98869.88
2022-12-25T10:51:11.952Z,98875.25
2022-12-25T10:52:24.400Z,98871.72
2022-12-25T10:53:29.594Z,98873.78
2022-12-25T10:54:36.891Z,98867.66
2022-12-25T10:55:40.086Z,98870.78
2022-12-25T10:57:02.796Z,98876.41
2022-12-25T10:58:06.900Z,98870.31
2022-12-25T10:59:11.777Z,98868.00
2022-12-25T11:00:27.009Z,98874.28
2022-12-25T11:01:30.267Z,98871.72
2022-12-25T11:02:41.014Z,98867.50
2022-12-25T11:03:52.602Z,98868.09
2022-12-25T11:05:24.510Z,98858.25
2022-12-25T11:06:32.259Z,98860.56
2022-12-25T11:07:54.667Z,98859.94
2022-12-25T11:09:00.684Z,98853.94
2022-12-25T11:10:21.557Z,98851.78
2022-12-25T11:11:25.092Z,98841.66
2022-12-25T11:12:42.469Z,98842.00
2022-12-25T11:13:51.874Z,98846.53
2022-12-25T11:14:57.839Z,98836.91
2022-12-25T11:16:26.146Z,98840.28
2022-12-25T11:17:29.476Z,98841.13
2022-12-25T11:18:46.046Z,98850.09
2022-12-25T11:20:01.628Z,98836.72
2022-12-25T11:21:17.942Z,98843.69
2022-12-25T11:22:21.359Z,98841.53
2022-12-25T11:23:26.914Z,98836.09
2022-12-25T11:24:32.127Z,98842.53
2022-12-25T11:25:35.410Z,98841.09
2022-12-25T11:26:59.593Z,98841.41
2022-12-25T11:28:06.377Z,98835.53
2022-12-25T11:29:24.130Z,98842.53
2022-12-25T11:30:30.676Z,98835.69
2022-12-25T11:31:39.863Z,98831.03
2022-12-25T11:32:49.255Z,98833.78
2022-12-25T11:33:56.867Z,98828.94
2022-12-25T11:35:01.715Z,98833.38
2022-12-25T11:36:23.583Z,98827.16
2022-12-25T11:37:42.275Z,98832.47
2022-12-25T11:38:45.640Z,98833.44
2022-12-25T11:39:48.851Z,98830.78
2022-12-25T11:40:56.591Z,98825.16
2022-12-25T11:42:13.188Z,98827.72
2022-12-25T11:43:27.336Z,98830.13
2022-12-25T11:44:48.857Z,98829.53
2022-12-25T11:46:02.482Z,98834.09
2022-12-25T11:47:19.731Z,98833.72
2022-12-25T11:49:52.134Z,98834.34
2022-12-25T11:51:02.716Z,98833.59
2022-12-25T11:52:10.445Z,98823.78
2022-12-25T11:53:38.714Z,98825.78
2022-12-25T11:54:52.989Z,98825.78
2022-12-25T11:56:08.361Z,98826.16
2022-12-25T11:57:12.169Z,98824.84
2022-12-25T11:58:26.113Z,98818.03
2022-12-25T11:59:47.428Z,98824.53
2022-12-25T12:00:54.243Z,98823.06
2022-12-25T12:02:29.550Z,98819.72
2022-12-25T12:04:51.504Z,98819.41
2022-12-25T12:06:06.777Z,98816.28
2022-12-25T12:07:28.601Z,98810.88
2022-12-25T12:08:33.101Z,98808.22
2022-12-25T12:09:57.489Z,98815.16
2022-12-25T12:11:36.983Z,98817.56
2022-12-25T12:13:07.175Z,98814.63
2022-12-25T12:14:22.631Z,98800.91
2022-12-25T12:15:46.392Z,98813.06
2022-12-25T12:16:49.824Z,98813.94
2022-12-25T12:17:53.144Z,98815.31
2022-12-25T12:18:56.213Z,98808.12
2022-12-25T12:19:59.416Z,98817.19
2022-12-25T12:21:12.008Z,98821.22
2022-12-25T12:22:25.039Z,98829.88
2022-12-25T12:23:34.295Z,98822.56
2022-12-25T12:24:43.432Z,98816.38
2022-12-25T12:25:46.704Z,98822.16
2022-12-25T12:27:02.787Z,98820.41
2022-12-25T12:28:06.058Z,98819.00
2022-12-25T12:29:27.413Z,98826.94
2022-12-25T12:30:35.874Z,98823.34
2022-12-25T12:31:45.835Z,98822.72
2022-12-25T12:32:54.007Z,98823.66
2022-12-25T12:33:59.375Z,98820.53
2022-12-25T12:35:20.446Z,98821.88
2022-12-25T12:36:35.709Z,98822.38
2022-12-25T12:37:41.552Z,98821.00
2022-12-25T12:38:45.332Z,98816.19
2022-12-25T12:39:54.347Z,98814.38
2022-12-25T12:41:01.989Z,98816.56
2022-12-25T12:42:21.407Z,98810.81
2022-12-25T12:43:24.519Z,98813.50
2022-12-25T12:44:35.023Z,98818.81
2022-12-25T12:45:38.695Z,98815.72
2022-12-25T12:46:55.474Z,98822.97
2022-12-25T12:47:58.893Z,98821.75
2022-12-25T12:49:24.063Z,98820.41
2022-12-25T12:50:33.253Z,98828.81
2022-12-25T12:51:38.469Z,98829.56
2022-12-25T12:52:42.371Z,98828.91
2022-12-25T12:53:45.847Z,98824.00
2022-12-25T12:55:05.964Z,98827.28
2022-12-25T12:56:20.394Z,98829.19
2022-12-25T12:57:34.694Z,98828.41
2022-12-25T12:58:45.680Z,98831.22
2022-12-25T12:59:52.515Z,98829.19
2022-12-25T13:01:28.114Z,98834.53
2022-12-25T13:02:47.244Z,98829.66
2022-12-25T13:04:09.124Z,98824.88
2022-12-25T13:05:20.660Z,98831.22
2022-12-25T13:06:24.224Z,98832.69
2022-12-25T13:08:01.664Z,98837.16
2022-12-25T13:09:46.353Z,98832.19
2022-12-25T13:10:52.255Z,98839.59
2022-12-25T13:11:55.775Z,98844.03
2022-12-25T13:13:03.756Z,98834.28
2022-12-25T13:14:14.744Z,98836.38
2022-12-25T13:15:27.800Z,98838.41
2022-12-25T13:16:35.393Z,98835.87
2022-12-25T13:17:38.784Z,98836.16
2022-12-25T13:18:42.770Z,98831.59
2022-12-25T13:19:46.607Z,98831.94
2022-12-25T13:20:58.501Z,98826.97
2022-12-25T13:22:03.632Z,98827.87
2022-12-25T13:23:25.450Z,98826.47
2022-12-25T13:24:37.263Z,98824.75
2022-12-25T13:25:40.546Z,98825.28
2022-12-25T13:26:43.763Z,98825.63
2022-12-25T13:27:56.051Z,98826.34
2022-12-25T13:28:59.306Z,98830.84
2022-12-25T13:30:14.088Z,98833.53
2022-12-25T13:31:25.688Z,98828.16
2022-12-25T13:32:32.697Z,98833.06
2022-12-25T13:33:37.589Z,98828.03
2022-12-25T13:34:43.720Z,98824.53
2022-12-25T13:35:47.809Z,98834.72
2022-12-25T13:36:51.018Z,98831.78
2022-12-25T13:37:55.135Z,98826.87
2022-12-25T13:38:59.936Z,98828.19
2022-12-25T13:40:07.539Z,98829.94
2022-12-25T13:41:29.857Z,98830.53
2022-12-25T13:42:36.694Z,98837.06
2022-12-25T13:43:41.572Z,98835.06
2022-12-25T13:44:51.138Z,98824.06